This is the latest recevied weather packets stored in our database for station/object EA1GLE. If no packets are shown the sender has not sent any weather packets the latest 10 day(s).
| Time | Temp. | Humidity | Pressure | Rain* | Wind** | Luminosity | Snow |
|---|---|---|---|---|---|---|---|
| 1777579338 | 12.22° C | 90% | 1020.1 hPa | 0 mm | - | 0 W/m² | - |
| 1777576683 | 13.33° C | 87% | 1019.4 hPa | 0 mm | - | 0 W/m² | - |
| 1777571104 | 16.67° C | 67% | 1019.1 hPa | 0 mm | - | 74 W/m² | - |
| 1777568044 | 16.67° C | 68% | 1019.1 hPa | 0 mm | - | 106 W/m² | - |
| 1777566964 | 16.67° C | 65% | 1018.9 hPa | 0 mm | - | 145 W/m² | - |
| 1777566424 | 16.67° C | 67% | 1019 hPa | 0 mm | - | 143 W/m² | - |
| 1777556164 | 16.67° C | 59% | 1019.1 hPa | 0 mm | - | 802 W/m² | - |
| 1777555083 | 16.67° C | 60% | 1019.1 hPa | 0 mm | - | 375 W/m² | - |
| 1777545364 | 16.11° C | 74% | 1018.8 hPa | 0 mm | - | 303 W/m² | - |
| 1777539244 | 13.33° C | 85% | 1018.5 hPa | 0 mm | - | 403 W/m² | - |
| 1777538839 | 12.78° C | 85% | 1018.4 hPa | 0 mm | - | 235 W/m² | - |
| 1777536004 | 11.11° C | 99% | 1018.2 hPa | 0 mm | - | 105 W/m² | - |
| 1777532179 | 11.11° C | 99% | 1017.7 hPa | 0 mm | - | 71 W/m² | - |
| 1777530423 | 9.44° C | 99% | 1017.4 hPa | 0 mm | - | 53 W/m² | - |
| 1777529343 | 8.33° C | 99% | 1017.3 hPa | 0 mm | - | 35 W/m² | - |
| 1777528804 | 8.89° C | 99% | 1017.2 hPa | 0 mm | - | 26 W/m² | - |
| 1777524304 | 8.33° C | 99% | 1017 hPa | 0 mm | - | 0 W/m² | - |
| 1777519757 | 8.89° C | 99% | 1016.4 hPa | 0 mm | - | 0 W/m² | - |
| 1777518678 | 8.89° C | 99% | 1016.1 hPa | 0 mm | - | 0 W/m² | - |
| 1777518004 | 9.44° C | 99% | 1016.2 hPa | 0 mm | - | 0 W/m² | - |
| 1777515483 | 10° C | 99% | 1015.9 hPa | 0 mm | - | 0 W/m² | - |
| 1777510804 | 10.56° C | 98% | 1015.8 hPa | 0 mm | - | 0 W/m² | - |
| 1777507743 | 11.11° C | 97% | 1015.8 hPa | 0.25 mm | - | 0 W/m² | - |
| 1777503243 | 11.11° C | 98% | 1014.4 hPa | 0 mm | - | 0 W/m² | - |
| 1777499104 | 11.11° C | 97% | 1014.6 hPa | 0 mm | - | 0 W/m² | - |
* Rain latest hour (hover to see other rain measurements)
** Current wind speed in m/s (hover to see current wind gust speed)